Time;durP1;ratioP1;P1;durP2;ratioP2;P2;SDS_P1;SDS_P2;PMS_P1;PMS_P2;Temp;Humidity;BMP_temperature;BMP_pressure;BME280_temperature;BME280_humidity;BME280_pressure;Samples;Min_cycle;Max_cycle;Signal;HPM_P1;HPM_P2
2023/09/15 00:00:23;;;;;;;3.58;1.80;;;9.60;99.90;;;;;;5011289;28;20037;-51
2023/09/15 00:02:48;;;;;;;2.10;1.70;;;9.50;99.90;;;;;;5019567;28;20041;-52
2023/09/15 00:05:15;;;;;;;4.40;1.70;;;9.50;99.90;;;;;;5019901;28;20375;-50
2023/09/15 00:07:40;;;;;;;2.92;1.65;;;9.50;99.90;;;;;;5016288;28;20030;-53
2023/09/15 00:10:07;;;;;;;4.88;2.17;;;9.50;99.90;;;;;;5022391;28;20136;-52
2023/09/15 00:12:34;;;;;;;3.72;1.40;;;9.50;99.90;;;;;;5013203;28;20646;-48
2023/09/15 00:15:07;;;;;;;3.97;2.03;;;9.50;99.90;;;;;;5014877;28;20105;-55
2023/09/15 00:17:41;;;;;;;4.25;2.17;;;9.50;99.90;;;;;;5015418;28;20053;-54
2023/09/15 00:20:13;;;;;;;3.42;1.92;;;9.50;99.90;;;;;;5013050;28;20276;-51
2023/09/15 00:22:49;;;;;;;2.75;1.60;;;9.40;99.90;;;;;;5025031;28;20040;-51
2023/09/15 00:25:18;;;;;;;3.53;1.83;;;9.40;99.90;;;;;;5023513;28;20028;-51
2023/09/15 00:27:45;;;;;;;3.60;1.63;;;9.40;99.90;;;;;;5023021;28;20025;-53
2023/09/15 00:30:12;;;;;;;3.92;2.10;;;9.40;99.90;;;;;;5019218;28;20169;-55
2023/09/15 00:32:39;;;;;;;6.15;2.17;;;9.40;99.90;;;;;;5022935;28;20083;-53
2023/09/15 00:35:05;;;;;;;4.15;1.85;;;9.40;99.90;;;;;;5026572;28;20021;-52
2023/09/15 00:37:30;;;;;;;5.10;2.20;;;9.40;99.90;;;;;;5021485;28;20026;-49
2023/09/15 00:39:57;;;;;;;4.25;1.90;;;9.40;99.90;;;;;;5022085;28;20437;-55
2023/09/15 00:42:22;;;;;;;5.63;2.15;;;9.40;99.90;;;;;;5018465;28;20037;-54
2023/09/15 00:44:48;;;;;;;3.45;2.10;;;9.40;99.90;;;;;;5017286;28;20176;-52
2023/09/15 00:47:15;;;;;;;4.38;1.98;;;9.40;99.90;;;;;;5015691;28;20033;-54
2023/09/15 00:49:41;;;;;;;3.60;2.05;;;9.30;99.90;;;;;;5023592;28;20021;-51
2023/09/15 00:52:07;;;;;;;3.38;2.22;;;9.30;99.90;;;;;;5022340;28;20044;-52
2023/09/15 00:54:32;;;;;;;5.32;2.05;;;9.30;99.90;;;;;;5016845;28;20033;-52
2023/09/15 00:56:59;;;;;;;4.25;2.20;;;9.30;99.90;;;;;;5016880;28;20021;-54
2023/09/15 00:59:25;;;;;;;4.60;2.10;;;9.30;99.90;;;;;;5018486;28;20033;-54
2023/09/15 01:01:53;;;;;;;2.78;1.95;;;9.30;99.90;;;;;;5014691;28;20521;-51
2023/09/15 01:04:18;;;;;;;3.85;1.80;;;9.30;99.90;;;;;;5013910;28;20080;-51
2023/09/15 01:06:46;;;;;;;5.63;2.40;;;9.30;99.90;;;;;;5016703;28;20053;-54
2023/09/15 01:09:11;;;;;;;2.63;1.70;;;9.30;99.90;;;;;;5011908;28;20038;-51
2023/09/15 01:11:37;;;;;;;2.85;1.70;;;9.20;99.90;;;;;;5015132;28;20559;-52
2023/09/15 01:14:02;;;;;;;4.35;1.80;;;9.20;99.90;;;;;;5017271;28;20087;-49
2023/09/15 01:16:44;;;;;;;3.05;1.73;;;9.20;99.90;;;;;;5018846;28;20026;-51
2023/09/15 01:19:37;;;;;;;2.83;1.83;;;9.20;99.90;;;;;;5012210;28;20496;-50
2023/09/15 01:22:24;;;;;;;4.32;2.35;;;9.20;99.90;;;;;;5010681;28;20026;-52
2023/09/15 01:25:04;;;;;;;;;;;9.20;99.90;;;;;;5010674;28;20033;-50
2023/09/15 01:28:07;;;;;;;2.72;1.70;;;9.20;99.90;;;;;;5014489;28;19924;-50
2023/09/15 01:30:32;;;;;;;4.43;1.90;;;9.20;99.90;;;;;;5012530;28;20108;-52
2023/09/15 01:33:00;;;;;;;5.40;2.58;;;9.20;99.90;;;;;;5016000;28;20185;-52
2023/09/15 01:35:25;;;;;;;4.40;2.30;;;9.20;99.90;;;;;;5017090;28;20493;-50
2023/09/15 01:37:51;;;;;;;4.28;2.40;;;9.30;99.90;;;;;;5014821;28;20032;-51
2023/09/15 01:40:17;;;;;;;3.95;2.25;;;9.20;99.90;;;;;;5015844;28;20113;-56
2023/09/15 01:42:43;;;;;;;3.22;2.05;;;9.30;99.90;;;;;;5012214;28;20037;-52
2023/09/15 01:45:09;;;;;;;4.38;1.83;;;9.30;99.90;;;;;;5016194;28;20036;-54
2023/09/15 01:47:36;;;;;;;6.97;2.72;;;9.30;99.90;;;;;;5016202;28;20018;-52
2023/09/15 01:50:03;;;;;;;8.65;3.00;;;9.20;99.90;;;;;;5016110;28;20508;-55
2023/09/15 01:52:29;;;;;;;2.47;1.90;;;9.20;99.90;;;;;;5018068;28;20029;-53
2023/09/15 01:54:56;;;;;;;2.80;1.52;;;9.20;99.90;;;;;;5018835;28;20386;-53
2023/09/15 01:57:22;;;;;;;5.40;1.98;;;9.20;99.90;;;;;;5024290;28;20034;-52
2023/09/15 01:59:48;;;;;;;3.30;2.10;;;9.20;99.90;;;;;;5019785;28;20029;-51
2023/09/15 02:02:13;;;;;;;2.55;1.80;;;9.20;99.90;;;;;;5019923;28;20033;-53
2023/09/15 02:04:39;;;;;;;3.88;2.10;;;9.20;99.90;;;;;;5025024;28;20036;-52
2023/09/15 02:07:04;;;;;;;3.00;2.15;;;9.20;99.90;;;;;;5025288;28;20041;-52
2023/09/15 02:09:30;;;;;;;5.03;2.40;;;9.20;99.90;;;;;;5019728;28;20044;-53
2023/09/15 02:11:55;;;;;;;5.45;3.13;;;9.20;99.90;;;;;;5019748;28;20304;-54
2023/09/15 02:14:21;;;;;;;4.63;2.45;;;9.30;99.90;;;;;;5016603;28;20043;-53
2023/09/15 02:16:46;;;;;;;4.22;2.60;;;9.30;99.90;;;;;;5015311;28;20030;-50
2023/09/15 02:19:12;;;;;;;3.58;2.55;;;9.30;99.90;;;;;;5019887;28;20283;-54
2023/09/15 02:21:37;;;;;;;5.53;2.30;;;9.30;99.90;;;;;;5017938;28;20037;-50
2023/09/15 02:24:03;;;;;;;3.60;2.60;;;9.30;99.90;;;;;;5030368;28;20064;-59
2023/09/15 02:26:29;;;;;;;4.70;2.90;;;9.40;99.90;;;;;;5019989;28;20021;-58
2023/09/15 02:28:54;;;;;;;5.40;2.58;;;9.40;99.90;;;;;;5019583;28;20037;-59
2023/09/15 02:31:20;;;;;;;5.47;2.75;;;9.30;99.90;;;;;;5016652;28;20099;-59
2023/09/15 02:33:45;;;;;;;4.22;2.47;;;9.30;99.90;;;;;;5022870;28;20032;-59
2023/09/15 02:36:11;;;;;;;4.95;2.38;;;9.30;99.90;;;;;;5014947;28;20544;-59
2023/09/15 02:38:37;;;;;;;4.68;2.22;;;9.30;99.90;;;;;;5025618;28;20040;-59
2023/09/15 02:41:03;;;;;;;4.30;3.15;;;9.30;99.90;;;;;;5022079;28;20462;-60
2023/09/15 02:43:29;;;;;;;7.07;2.50;;;9.30;99.90;;;;;;5025120;28;20025;-59
2023/09/15 02:45:54;;;;;;;3.72;2.92;;;9.30;99.90;;;;;;5019456;28;20417;-59
2023/09/15 02:48:20;;;;;;;5.53;2.60;;;9.30;99.90;;;;;;5019258;28;20090;-59
2023/09/15 02:50:45;;;;;;;3.83;2.55;;;9.40;99.90;;;;;;5019282;28;20254;-52
2023/09/15 02:53:11;;;;;;;3.78;2.50;;;9.30;99.90;;;;;;5016066;28;20030;-60
2023/09/15 02:55:40;;;;;;;5.25;2.97;;;9.30;99.90;;;;;;5012583;28;20072;-60
2023/09/15 02:58:05;;;;;;;5.25;2.47;;;9.30;99.90;;;;;;5013573;28;20057;-60
2023/09/15 03:00:31;;;;;;;4.75;2.50;;;9.30;99.90;;;;;;5008953;28;20038;-60
2023/09/15 03:02:57;;;;;;;4.53;2.40;;;9.20;99.90;;;;;;5012650;28;20593;-60
2023/09/15 03:05:22;;;;;;;4.13;2.58;;;9.20;99.90;;;;;;5011224;28;20120;-60
2023/09/15 03:07:48;;;;;;;3.78;2.65;;;9.20;99.90;;;;;;5015910;28;20034;-60
2023/09/15 03:10:14;;;;;;;4.75;2.78;;;9.20;99.90;;;;;;5008550;28;20129;-59
2023/09/15 03:12:40;;;;;;;4.68;2.47;;;9.20;99.90;;;;;;5012561;28;20420;-60
2023/09/15 03:15:07;;;;;;;4.15;2.47;;;9.20;99.90;;;;;;5011139;28;20060;-59
2023/09/15 03:17:34;;;;;;;3.20;2.42;;;9.20;99.90;;;;;;5020114;28;20013;-58
2023/09/15 03:20:00;;;;;;;6.68;2.50;;;9.20;99.90;;;;;;5015136;28;20033;-59
2023/09/15 03:22:27;;;;;;;4.07;2.60;;;9.20;99.90;;;;;;5015359;28;20266;-57
2023/09/15 03:24:54;;;;;;;4.05;2.78;;;9.20;99.90;;;;;;5013410;28;20041;-59
2023/09/15 03:27:20;;;;;;;6.00;2.63;;;9.30;99.90;;;;;;5012861;28;20034;-59
2023/09/15 03:29:46;;;;;;;4.95;2.80;;;9.30;99.90;;;;;;5026344;28;20400;-59
2023/09/15 03:32:11;;;;;;;4.85;2.90;;;9.20;99.90;;;;;;5018823;28;20033;-60
2023/09/15 03:34:38;;;;;;;3.05;2.35;;;9.20;99.90;;;;;;5019154;28;20592;-59
2023/09/15 03:37:04;;;;;;;3.95;2.53;;;9.20;99.90;;;;;;5019789;28;20029;-59
2023/09/15 03:39:29;;;;;;;5.10;2.80;;;9.10;99.90;;;;;;5024526;28;20048;-60
2023/09/15 03:41:55;;;;;;;4.63;2.28;;;9.20;99.90;;;;;;5015294;28;20018;-59
2023/09/15 03:44:22;;;;;;;4.00;2.85;;;9.10;99.90;;;;;;5018041;28;20041;-59
2023/09/15 03:46:48;;;;;;;4.35;2.85;;;9.10;99.90;;;;;;5014690;28;20116;-59
2023/09/15 03:49:14;;;;;;;4.60;3.00;;;9.10;99.90;;;;;;5022545;28;20531;-59
2023/09/15 03:51:40;;;;;;;3.13;2.38;;;9.10;99.90;;;;;;5018663;28;20096;-59
2023/09/15 03:54:05;;;;;;;6.25;3.42;;;9.10;99.90;;;;;;5018349;28;20180;-60
2023/09/15 03:56:32;;;;;;;4.25;2.88;;;9.20;99.90;;;;;;5017122;28;20385;-58
2023/09/15 03:58:58;;;;;;;6.50;3.08;;;9.20;99.90;;;;;;5020374;28;20024;-60
2023/09/15 04:01:24;;;;;;;5.28;2.88;;;9.20;99.90;;;;;;5017848;28;20057;-59
2023/09/15 04:03:50;;;;;;;5.78;3.67;;;9.20;99.90;;;;;;5018527;28;20570;-59
2023/09/15 04:06:18;;;;;;;4.32;2.78;;;9.20;99.90;;;;;;5016818;28;20033;-58
2023/09/15 04:08:46;;;;;;;5.22;3.25;;;9.20;99.90;;;;;;5016858;28;20057;-60
2023/09/15 04:11:11;;;;;;;6.05;2.92;;;9.20;99.90;;;;;;5019574;28;20025;-60
2023/09/15 04:13:36;;;;;;;6.10;3.03;;;9.20;99.90;;;;;;5010575;28;20025;-58
2023/09/15 04:16:04;;;;;;;5.53;3.22;;;9.20;99.90;;;;;;5020017;28;20091;-60
2023/09/15 04:18:31;;;;;;;5.03;2.97;;;9.20;99.90;;;;;;5014792;28;20215;-60
2023/09/15 04:20:57;;;;;;;4.93;2.97;;;9.20;99.90;;;;;;5017332;28;20033;-60
2023/09/15 04:23:23;;;;;;;6.55;2.78;;;9.20;99.90;;;;;;5015614;28;20059;-57
2023/09/15 04:25:49;;;;;;;5.20;3.42;;;9.10;99.90;;;;;;5022065;28;20022;-57
2023/09/15 04:28:14;;;;;;;6.15;3.05;;;9.10;99.90;;;;;;5017620;28;20025;-57
2023/09/15 04:30:40;;;;;;;7.10;3.53;;;9.20;99.90;;;;;;5012231;28;20025;-57
2023/09/15 04:33:05;;;;;;;6.55;3.80;;;9.10;99.90;;;;;;5020117;28;20583;-55
2023/09/15 04:35:31;;;;;;;4.72;3.20;;;9.20;99.90;;;;;;5014273;28;20065;-57
2023/09/15 04:37:57;;;;;;;4.95;2.97;;;9.20;99.90;;;;;;5016186;28;20053;-56
2023/09/15 04:40:23;;;;;;;4.93;3.15;;;9.20;99.90;;;;;;5020216;28;20029;-55
2023/09/15 04:42:49;;;;;;;6.22;2.90;;;9.20;99.90;;;;;;5016255;28;20409;-56
2023/09/15 04:45:14;;;;;;;4.68;2.83;;;9.20;99.90;;;;;;5019081;28;20557;-56
2023/09/15 04:47:43;;;;;;;4.38;2.33;;;9.20;99.90;;;;;;5014131;28;20034;-54
2023/09/15 04:50:08;;;;;;;4.90;3.20;;;9.10;99.90;;;;;;5012151;28;20097;-56
2023/09/15 04:52:34;;;;;;;8.98;3.20;;;9.10;99.90;;;;;;5020241;28;20029;-54
2023/09/15 04:54:59;;;;;;;6.07;3.20;;;9.10;99.90;;;;;;5013778;28;20022;-55
2023/09/15 04:57:25;;;;;;;5.45;3.30;;;9.20;99.90;;;;;;5017173;28;20077;-56
2023/09/15 04:59:55;;;;;;;4.30;3.05;;;9.20;99.90;;;;;;5013081;28;20026;-57
2023/09/15 05:02:23;;;;;;;6.57;3.28;;;9.20;99.90;;;;;;5023939;28;20034;-56
2023/09/15 05:04:52;;;;;;;5.30;3.13;;;9.30;99.90;;;;;;5019038;28;20029;-57
2023/09/15 05:07:18;;;;;;;8.77;4.30;;;9.30;99.90;;;;;;5019360;28;20025;-56
2023/09/15 05:09:44;;;;;;;4.70;3.38;;;9.40;99.90;;;;;;5013864;28;20090;-57
2023/09/15 05:12:10;;;;;;;5.90;3.05;;;9.50;99.90;;;;;;5016781;28;20041;-56
2023/09/15 05:14:35;;;;;;;6.70;3.95;;;9.50;99.90;;;;;;5013083;28;20766;-56
2023/09/15 05:17:01;;;;;;;5.55;4.00;;;9.60;99.90;;;;;;5014605;28;20029;-54
2023/09/15 05:19:26;;;;;;;5.10;3.45;;;9.60;99.90;;;;;;5012578;28;20029;-51
2023/09/15 05:21:52;;;;;;;6.80;3.38;;;9.70;99.90;;;;;;5016307;28;20025;-57
2023/09/15 05:24:17;;;;;;;5.72;3.60;;;9.80;99.90;;;;;;5021387;28;20036;-56
2023/09/15 05:26:43;;;;;;;4.78;3.08;;;9.90;99.90;;;;;;5013576;28;20113;-56
2023/09/15 05:29:08;;;;;;;8.82;3.20;;;10.00;99.90;;;;;;5015591;28;20026;-56
2023/09/15 05:31:34;;;;;;;4.43;2.75;;;10.00;99.90;;;;;;5012161;28;20033;-54
2023/09/15 05:33:59;;;;;;;4.20;2.78;;;10.40;99.90;;;;;;5016015;28;20481;-56
2023/09/15 05:36:25;;;;;;;5.45;3.10;;;11.10;99.90;;;;;;5020620;28;20025;-56
2023/09/15 05:38:52;;;;;;;4.43;3.25;;;12.10;99.90;;;;;;5017057;28;20101;-54
2023/09/15 05:41:17;;;;;;;5.10;3.25;;;13.10;99.90;;;;;;5018223;28;20123;-58
2023/09/15 05:43:43;;;;;;;5.25;3.20;;;14.10;99.90;;;;;;5012122;28;20104;-54
2023/09/15 05:46:08;;;;;;;5.43;2.78;;;15.10;99.90;;;;;;5023860;28;20024;-56
2023/09/15 05:48:34;;;;;;;4.13;2.67;;;15.90;99.90;;;;;;5019965;28;20116;-56
2023/09/15 05:51:03;;;;;;;4.63;2.67;;;16.70;99.90;;;;;;5015794;28;20072;-55
2023/09/15 05:53:28;;;;;;;3.92;2.60;;;17.40;99.50;;;;;;5016088;28;20397;-57
2023/09/15 05:55:55;;;;;;;4.13;2.90;;;18.00;96.30;;;;;;5018055;28;20033;-57
2023/09/15 05:58:21;;;;;;;4.18;2.80;;;18.50;92.60;;;;;;5017820;28;20478;-56
2023/09/15 06:00:46;;;;;;;2.65;2.05;;;19.00;93.10;;;;;;5012146;28;20025;-57
2023/09/15 06:03:12;;;;;;;5.78;2.97;;;19.60;91.60;;;;;;5015921;28;20049;-58
2023/09/15 06:05:38;;;;;;;5.45;2.55;;;20.00;89.50;;;;;;5016044;28;20394;-56
2023/09/15 06:08:03;;;;;;;3.47;2.58;;;20.50;85.20;;;;;;5020045;28;20131;-57
2023/09/15 06:10:29;;;;;;;3.13;2.60;;;20.80;85.90;;;;;;5021330;28;20022;-55
2023/09/15 06:12:55;;;;;;;3.40;2.25;;;21.20;83.90;;;;;;5015643;28;20050;-55
2023/09/15 06:15:21;;;;;;;4.93;2.38;;;21.60;80.40;;;;;;5012011;28;20037;-58
2023/09/15 06:17:47;;;;;;;3.08;2.45;;;21.80;79.40;;;;;;5014672;28;20021;-58
2023/09/15 06:20:13;;;;;;;3.47;2.70;;;22.10;78.70;;;;;;5011487;28;20056;-57
2023/09/15 06:22:39;;;;;;;3.55;2.60;;;22.30;74.50;;;;;;5010778;28;20498;-58
2023/09/15 06:25:05;;;;;;;3.17;2.35;;;22.50;70.90;;;;;;5018095;28;20033;-59
2023/09/15 06:27:33;;;;;;;4.78;3.17;;;22.70;69.50;;;;;;5011667;28;20659;-59
2023/09/15 06:29:58;;;;;;;3.42;2.60;;;23.10;66.50;;;;;;5011124;28;20029;-60
2023/09/15 06:32:24;;;;;;;3.35;2.50;;;23.40;68.90;;;;;;5017740;28;20053;-58
2023/09/15 06:34:50;;;;;;;2.92;2.38;;;23.40;67.00;;;;;;5012569;28;20022;-60
2023/09/15 06:37:15;;;;;;;4.45;2.10;;;23.50;67.00;;;;;;5017611;28;20041;-60
2023/09/15 06:39:41;;;;;;;2.85;2.25;;;23.90;67.60;;;;;;5014305;28;20489;-60
2023/09/15 06:42:08;;;;;;;3.58;2.33;;;23.60;63.50;;;;;;5015939;28;20033;-59
2023/09/15 06:44:35;;;;;;;3.08;2.20;;;23.80;65.70;;;;;;5011364;28;20025;-59
2023/09/15 06:47:01;;;;;;;3.55;2.38;;;24.30;64.80;;;;;;5013532;28;20029;-59
2023/09/15 06:49:27;;;;;;;2.08;1.80;;;24.30;63.20;;;;;;5014254;28;20045;-59
2023/09/15 06:51:53;;;;;;;3.30;2.40;;;25.00;63.40;;;;;;5012344;28;20060;-59
2023/09/15 06:54:19;;;;;;;4.75;2.65;;;24.90;50.70;;;;;;5017472;28;20105;-59
2023/09/15 06:56:45;;;;;;;3.17;2.22;;;24.90;60.40;;;;;;5020257;28;20105;-60
2023/09/15 06:59:11;;;;;;;2.80;2.15;;;25.40;57.70;;;;;;5019530;28;20487;-59
2023/09/15 07:01:36;;;;;;;5.25;2.15;;;26.00;59.20;;;;;;5019964;28;20076;-60
2023/09/15 07:04:03;;;;;;;3.10;2.60;;;26.50;56.90;;;;;;5021715;28;20483;-59
2023/09/15 07:06:29;;;;;;;2.95;1.95;;;26.40;54.60;;;;;;5022814;28;20509;-59
2023/09/15 07:08:54;;;;;;;3.47;2.13;;;26.50;53.90;;;;;;5023109;28;20070;-60
2023/09/15 07:11:19;;;;;;;3.33;2.17;;;26.50;51.60;;;;;;5022960;28;20036;-59
2023/09/15 07:13:45;;;;;;;4.75;2.47;;;26.20;52.30;;;;;;5016562;28;20026;-57
2023/09/15 07:16:10;;;;;;;2.60;1.92;;;26.40;53.30;;;;;;5021016;28;20049;-58
2023/09/15 07:18:37;;;;;;;2.88;2.22;;;26.80;53.20;;;;;;5028583;28;20260;-60
2023/09/15 07:21:02;;;;;;;3.75;2.30;;;27.10;51.90;;;;;;5021419;28;20029;-59
2023/09/15 07:23:28;;;;;;;4.35;3.00;;;27.30;47.40;;;;;;5020212;28;20030;-59
2023/09/15 07:25:53;;;;;;;5.10;3.20;;;26.40;50.30;;;;;;5024842;28;20025;-59
2023/09/15 07:28:20;;;;;;;4.95;3.17;;;26.10;49.00;;;;;;5021186;28;20393;-59
2023/09/15 07:30:45;;;;;;;4.45;3.38;;;25.90;50.60;;;;;;5021117;28;20026;-58
2023/09/15 07:33:11;;;;;;;3.70;2.83;;;25.80;45.20;;;;;;5026067;28;20098;-59
2023/09/15 07:35:36;;;;;;;5.25;3.53;;;25.60;51.60;;;;;;5020112;28;20489;-60
2023/09/15 07:38:03;;;;;;;4.35;3.15;;;25.90;51.50;;;;;;5031028;28;20025;-59
2023/09/15 07:40:29;;;;;;;3.95;2.78;;;26.20;49.20;;;;;;5026284;28;20108;-59
2023/09/15 07:42:55;;;;;;;3.15;2.53;;;26.60;50.70;;;;;;5021944;28;20457;-59
2023/09/15 07:45:20;;;;;;;6.93;3.22;;;26.60;48.50;;;;;;5022127;28;20033;-59
2023/09/15 07:47:46;;;;;;;4.65;2.85;;;26.70;49.90;;;;;;5021897;28;20045;-58
2023/09/15 07:50:13;;;;;;;3.65;2.30;;;26.90;49.60;;;;;;5023869;28;20154;-60
2023/09/15 07:52:39;;;;;;;4.22;2.50;;;26.90;49.50;;;;;;5020532;28;20481;-60
2023/09/15 07:55:05;;;;;;;3.80;2.47;;;26.80;49.40;;;;;;5019338;28;20306;-60
2023/09/15 07:57:32;;;;;;;4.97;2.45;;;26.80;49.20;;;;;;5021137;28;20021;-59
2023/09/15 07:59:59;;;;;;;5.75;2.70;;;26.20;49.60;;;;;;5028438;28;20025;-59
2023/09/15 08:02:26;;;;;;;2.85;2.35;;;26.20;47.30;;;;;;5021922;28;20055;-59
2023/09/15 08:04:52;;;;;;;2.90;2.25;;;26.30;49.30;;;;;;5021624;28;20033;-58
2023/09/15 08:07:18;;;;;;;2.47;2.10;;;26.40;48.70;;;;;;5027557;28;20037;-59
2023/09/15 08:09:43;;;;;;;2.60;1.80;;;26.20;48.70;;;;;;5021603;28;20030;-59
2023/09/15 08:12:09;;;;;;;3.20;1.63;;;25.90;48.30;;;;;;5021634;28;20491;-60
2023/09/15 08:14:34;;;;;;;2.95;2.00;;;25.90;48.50;;;;;;5016056;28;20394;-58
2023/09/15 08:17:00;;;;;;;2.42;2.05;;;25.90;49.20;;;;;;5019998;28;20022;-58
2023/09/15 08:19:27;;;;;;;3.20;2.42;;;25.70;48.60;;;;;;5021507;28;20029;-58
2023/09/15 08:21:52;;;;;;;3.72;2.20;;;25.70;48.80;;;;;;5027021;28;20028;-59
2023/09/15 08:24:20;;;;;;;2.42;2.00;;;25.50;47.30;;;;;;5021509;28;20029;-59
2023/09/15 08:26:46;;;;;;;3.72;2.30;;;25.50;48.80;;;;;;5021386;28;20464;-52
2023/09/15 08:29:12;;;;;;;3.45;2.47;;;25.70;48.50;;;;;;5025309;28;20037;-60
2023/09/15 08:31:37;;;;;;;2.88;2.30;;;25.60;48.00;;;;;;5023999;28;20041;-59
2023/09/15 08:34:03;;;;;;;2.63;2.20;;;25.10;47.70;;;;;;5021147;28;20402;-59
2023/09/15 08:36:28;;;;;;;3.58;1.98;;;24.90;47.80;;;;;;5023203;28;20057;-60
2023/09/15 08:38:54;;;;;;;2.35;1.77;;;25.10;48.10;;;;;;5021019;28;20493;-59
2023/09/15 08:41:29;;;;;;;2.20;2.00;;;25.40;47.40;;;;;;5019707;28;20029;-59
2023/09/15 08:43:55;;;;;;;4.15;2.58;;;25.70;44.20;;;;;;5016947;28;20036;-58
2023/09/15 08:46:22;;;;;;;2.65;2.45;;;25.80;45.00;;;;;;5018324;28;20130;-59
2023/09/15 08:48:51;;;;;;;4.00;2.10;;;24.90;44.60;;;;;;5022319;28;20030;-59
2023/09/15 08:51:18;;;;;;;2.50;2.20;;;24.60;45.90;;;;;;5018741;28;20049;-59
2023/09/15 08:53:44;;;;;;;3.83;2.03;;;24.60;46.10;;;;;;5019444;28;20379;-59
2023/09/15 08:56:10;;;;;;;3.08;2.25;;;24.70;45.80;;;;;;5022929;28;20446;-58
2023/09/15 08:58:37;;;;;;;3.13;1.85;;;24.80;45.00;;;;;;5020869;28;20342;-57
2023/09/15 09:01:07;;;;;;;3.78;2.30;;;25.00;45.20;;;;;;5026661;28;20071;-60
2023/09/15 09:03:38;;;;;;;4.40;2.30;;;25.10;44.60;;;;;;5018709;28;20113;-60
2023/09/15 09:06:09;;;;;;;4.25;2.03;;;25.20;43.60;;;;;;5022412;28;20025;-60
2023/09/15 09:08:37;;;;;;;4.80;2.47;;;25.20;43.30;;;;;;5018521;28;20115;-60
2023/09/15 09:11:03;;;;;;;4.80;2.38;;;25.30;43.70;;;;;;5021002;28;20211;-60
2023/09/15 09:13:28;;;;;;;3.72;2.25;;;25.40;43.40;;;;;;5019067;28;20040;-60
2023/09/15 09:15:54;;;;;;;3.03;2.20;;;25.50;43.40;;;;;;5020434;28;20029;-59
2023/09/15 09:18:20;;;;;;;2.47;1.85;;;25.60;42.10;;;;;;5020555;28;20393;-59
2023/09/15 09:20:49;;;;;;;3.65;2.20;;;25.70;42.20;;;;;;5020278;28;20045;-58
2023/09/15 09:23:16;;;;;;;2.63;2.00;;;25.70;41.50;;;;;;5020243;28;20326;-58
2023/09/15 09:25:42;;;;;;;3.88;2.50;;;25.80;41.60;;;;;;5023609;28;20489;-58
2023/09/15 09:28:08;;;;;;;4.18;2.20;;;25.50;40.70;;;;;;5030657;28;20025;-59
2023/09/15 09:30:33;;;;;;;5.72;2.65;;;25.20;42.80;;;;;;5020118;28;20127;-60
2023/09/15 09:32:59;;;;;;;4.47;2.63;;;24.70;43.10;;;;;;5019805;28;20041;-60
2023/09/15 09:35:25;;;;;;;2.88;2.05;;;24.50;43.00;;;;;;5018768;28;20030;-59
2023/09/15 09:37:55;;;;;;;3.05;2.40;;;24.50;43.40;;;;;;5024312;28;20036;-59
2023/09/15 09:40:22;;;;;;;3.55;2.60;;;24.70;43.20;;;;;;5019995;28;20033;-59
2023/09/15 09:42:49;;;;;;;4.32;2.92;;;24.70;43.20;;;;;;5019840;28;20458;-59
2023/09/15 09:45:15;;;;;;;3.70;2.65;;;24.00;44.00;;;;;;5026550;28;20648;-59
2023/09/15 09:47:42;;;;;;;3.85;2.72;;;23.70;45.30;;;;;;5024016;28;20025;-59
2023/09/15 09:50:10;;;;;;;3.85;2.38;;;23.70;45.60;;;;;;5022042;28;20436;-58
2023/09/15 09:52:36;;;;;;;3.28;2.13;;;23.80;45.00;;;;;;5021266;28;20124;-58
2023/09/15 09:55:10;;;;;;;4.85;2.60;;;23.60;43.70;;;;;;5019602;28;20104;-59
2023/09/15 09:57:39;;;;;;;3.28;2.17;;;23.30;46.20;;;;;;5018325;28;20037;-59
2023/09/15 10:00:09;;;;;;;3.97;2.63;;;23.30;46.70;;;;;;5019750;28;20256;-59
2023/09/15 10:02:42;;;;;;;4.22;2.22;;;23.50;46.60;;;;;;5019506;28;20424;-59
2023/09/15 10:05:08;;;;;;;3.92;2.22;;;23.50;46.20;;;;;;5023525;28;20029;-59
2023/09/15 10:07:34;;;;;;;3.58;2.40;;;23.50;45.90;;;;;;5019429;28;20033;-59
2023/09/15 10:09:59;;;;;;;4.05;2.45;;;23.70;46.00;;;;;;5015489;28;20092;-59
2023/09/15 10:12:25;;;;;;;3.53;2.47;;;23.20;45.60;;;;;;5021259;28;20108;-59
2023/09/15 10:14:52;;;;;;;6.80;2.50;;;23.20;46.80;;;;;;5014209;28;20028;-58
2023/09/15 10:17:21;;;;;;;4.13;2.30;;;23.10;45.90;;;;;;5022139;28;20363;-59
2023/09/15 10:19:50;;;;;;;3.38;2.17;;;22.90;46.30;;;;;;5023490;28;20037;-58
2023/09/15 10:22:17;;;;;;;4.43;2.25;;;23.00;47.00;;;;;;5025519;28;20105;-59
2023/09/15 10:24:44;;;;;;;4.25;3.00;;;23.10;47.50;;;;;;5021349;28;20030;-59
2023/09/15 10:27:11;;;;;;;3.30;2.30;;;22.80;47.50;;;;;;5017362;28;20036;-59
2023/09/15 10:29:37;;;;;;;3.13;2.40;;;22.60;46.10;;;;;;5022705;28;20660;-60
2023/09/15 10:32:04;;;;;;;4.22;2.55;;;22.50;46.70;;;;;;5016588;28;20029;-59
2023/09/15 10:34:32;;;;;;;4.25;2.70;;;22.50;45.50;;;;;;5020850;28;20084;-60
2023/09/15 10:37:01;;;;;;;4.07;2.95;;;22.40;45.70;;;;;;5023055;28;20022;-59
2023/09/15 10:39:35;;;;;;;3.63;2.40;;;22.50;45.70;;;;;;5021715;28;20029;-59
2023/09/15 10:42:05;;;;;;;2.97;2.53;;;22.50;45.20;;;;;;5020012;28;20025;-56
2023/09/15 10:44:31;;;;;;;4.15;2.83;;;22.40;46.00;;;;;;5023694;28;20025;-57
2023/09/15 10:46:56;;;;;;;8.23;2.60;;;22.40;46.40;;;;;;5028806;28;20029;-60
2023/09/15 10:49:22;;;;;;;3.42;2.47;;;22.40;45.60;;;;;;5024079;28;20038;-60
2023/09/15 10:51:52;;;;;;;4.40;2.90;;;22.40;44.60;;;;;;5023633;28;20032;-58
2023/09/15 10:54:19;;;;;;;6.35;2.47;;;22.30;46.90;;;;;;5017731;28;20029;-59
2023/09/15 10:56:45;;;;;;;3.65;2.60;;;22.20;48.20;;;;;;5021183;28;20029;-59
2023/09/15 10:59:11;;;;;;;3.63;2.38;;;22.20;47.30;;;;;;5009028;28;20031;-60
2023/09/15 11:01:37;;;;;;;5.28;2.85;;;22.40;48.70;;;;;;5018800;28;20108;-57
2023/09/15 11:04:04;;;;;;;5.45;2.88;;;22.50;46.40;;;;;;5027832;28;20064;-59
2023/09/15 11:06:29;;;;;;;8.20;2.80;;;22.30;47.70;;;;;;5025093;28;20063;-60
2023/09/15 11:08:57;;;;;;;4.00;2.42;;;22.30;50.00;;;;;;5017739;28;20949;-59
2023/09/15 11:11:23;;;;;;;9.85;2.50;;;22.30;49.00;;;;;;5022474;28;20132;-60
2023/09/15 11:13:48;;;;;;;6.30;4.18;;;22.30;48.70;;;;;;5023079;28;20029;-59
2023/09/15 11:16:14;;;;;;;4.72;2.88;;;22.20;48.60;;;;;;5019335;28;20041;-59
2023/09/15 11:18:39;;;;;;;3.15;2.63;;;22.30;46.90;;;;;;5031024;28;20029;-60
2023/09/15 11:21:06;;;;;;;4.22;2.40;;;22.40;46.80;;;;;;5021794;28;20505;-60
2023/09/15 11:23:31;;;;;;;3.80;2.72;;;22.50;46.10;;;;;;5021861;28;20034;-60
2023/09/15 11:26:05;;;;;;;3.40;2.28;;;22.70;45.80;;;;;;5018905;28;20041;-60
2023/09/15 11:28:31;;;;;;;5.32;2.80;;;22.70;47.00;;;;;;5024154;28;20910;-60
2023/09/15 11:30:57;;;;;;;4.75;3.20;;;22.40;48.80;;;;;;5023645;28;20038;-59
2023/09/15 11:33:22;;;;;;;4.47;3.03;;;22.30;48.20;;;;;;5020206;28;20068;-59
2023/09/15 11:35:48;;;;;;;4.20;2.65;;;22.10;48.40;;;;;;5026550;28;20025;-58
2023/09/15 11:38:14;;;;;;;5.65;2.38;;;22.20;48.80;;;;;;5022414;28;20037;-59
2023/09/15 11:40:46;;;;;;;6.47;2.83;;;22.20;48.10;;;;;;5024328;28;20021;-59
2023/09/15 11:43:12;;;;;;;3.10;2.42;;;22.40;47.70;;;;;;5018960;28;20033;-58
2023/09/15 11:45:39;;;;;;;2.85;2.55;;;22.60;47.90;;;;;;5024324;28;20028;-59
2023/09/15 11:48:05;;;;;;;3.78;2.60;;;22.50;48.80;;;;;;5021517;28;20041;-59
2023/09/15 11:50:31;;;;;;;3.53;2.60;;;22.40;50.10;;;;;;5022301;28;20088;-59
2023/09/15 11:52:58;;;;;;;4.05;2.90;;;22.60;49.10;;;;;;5022253;28;20041;-59
2023/09/15 11:55:24;;;;;;;3.30;2.67;;;22.80;49.00;;;;;;5026077;28;20025;-59
2023/09/15 11:57:51;;;;;;;3.00;2.25;;;22.70;48.50;;;;;;5022034;28;20025;-59
2023/09/15 12:00:21;;;;;;;6.75;3.25;;;22.80;48.30;;;;;;5021927;28;20057;-57
2023/09/15 12:02:48;;;;;;;3.45;2.42;;;22.50;48.20;;;;;;5022124;28;20029;-58
2023/09/15 12:05:15;;;;;;;4.40;3.20;;;22.40;48.10;;;;;;5023646;28;20041;-60
2023/09/15 12:07:44;;;;;;;3.88;2.47;;;22.20;48.20;;;;;;5023892;28;20033;-60
2023/09/15 12:10:17;;;;;;;4.45;2.60;;;22.10;48.90;;;;;;5020525;28;20022;-60
2023/09/15 12:12:47;;;;;;;4.63;2.80;;;22.10;49.10;;;;;;5024740;28;20498;-50
2023/09/15 12:15:16;;;;;;;3.30;2.67;;;22.20;48.30;;;;;;5025336;28;20515;-55
2023/09/15 12:17:44;;;;;;;2.65;2.30;;;22.30;48.10;;;;;;5020518;28;20032;-53
2023/09/15 12:20:11;;;;;;;4.13;2.30;;;22.60;47.80;;;;;;5021648;28;20040;-51
2023/09/15 12:22:44;;;;;;;3.75;2.42;;;22.90;47.80;;;;;;5021618;28;20071;-52
2023/09/15 12:25:10;;;;;;;3.25;2.60;;;23.00;47.20;;;;;;5021580;28;20121;-54
2023/09/15 12:27:40;;;;;;;2.90;2.08;;;22.80;45.40;;;;;;5021978;28;20044;-49
2023/09/15 12:30:06;;;;;;;3.75;2.10;;;22.70;43.60;;;;;;5019900;28;20026;-49
2023/09/15 12:32:34;;;;;;;3.45;2.30;;;22.60;44.40;;;;;;5023994;28;20061;-56
2023/09/15 12:35:03;;;;;;;2.65;2.10;;;22.70;44.00;;;;;;5021350;28;20489;-56
2023/09/15 12:37:32;;;;;;;2.83;1.90;;;22.70;43.50;;;;;;5016193;28;20609;-54
2023/09/15 12:39:57;;;;;;;2.95;2.47;;;22.80;43.20;;;;;;5013610;28;20167;-56
2023/09/15 12:42:23;;;;;;;6.30;2.50;;;22.70;42.20;;;;;;5018217;28;20547;-56
2023/09/15 12:44:48;;;;;;;3.15;1.92;;;22.70;42.70;;;;;;5012253;28;20017;-58
2023/09/15 12:47:14;;;;;;;4.90;2.33;;;22.70;42.10;;;;;;5013898;28;20057;-56